Карточка аэропорта USTR

Внимание!
Информация на этой странице в стадии наполнения.
Если вы не увидели какой-то информации, или заметили неточность - пожалуйста сообщите нам!
Спасибо!
Команда XR-STAFF
Название аэропортаРощино
Название аэропорта (англ.)Roshschino
Превышение378 ft. (115.2 m.)
Координаты57°10.098', 65°19.002'
Высота перехода700m
Эшелон переходаFL040
Коды ответчика5101-5137
Зона ОрВДТюмень РПИ (USTV)
Данные METARUSTR 232000Z 12003MPS 9999 SCT032CB 09/09 Q1005 R21/CLRD65 R30/////99 TEMPO 2100 BR SCT007
Проноз погоды (TAF)USTR 231955Z 2321/2421 14005G10MPS 6000 -SHRA BKN016CB TEMPO 2321/2402 16004MPS 2100 -SHRA BR FEW007 BKN016CB BECMG 2402/2404 20006G13MPS 9999 -SHRA TEMPO 2408/2418 VRB15MPS 3100 -TSRA SQ FM241800 VRB01MPS 3100 BR FEW006 SCT011
NOTAMshow/hide NOTAM
AWOS   TABLE

Информация о ВПП

ВПП Длина ВПП (м.) Покрытие Курс ВПП Частота ILS
033003Асфальтобетон34108.3
213003Асфальтобетон214110.7
122704Асфальтобетон121 
302704Асфальтобетон301 

Диспетчерские позиции

Позывной Наименование органа УВД Частота
USTR_GNDТюмень-Руление119.000
USTR_TWRТюмень-Старт118.200
USTR_R_APPТюмень-Круг126.100



Спутниковое изображение